AirNav   Air Wisconsin Up To $57,000 Bonus
 
 577 users online  

WI97 Mathaire Field Airport
Marshall, Wisconsin, USA

GOING TO MARSHALL?


FAA INFORMATION EFFECTIVE 15 AUGUST 2019

Location

FAA Identifier: WI97
Lat/Long: 43-15-27.9720N 089-03-53.3960W
43-15.466200N 089-03.889933W
43.2577700,-89.0648322
(estimated)
Elevation: 960 ft. / 292.6 m (surveyed)
Variation: 00W (1985)
From city: 5 miles N of MARSHALL, WI
Time zone: UTC -5 (UTC -6 during Standard Time)
Zip code: 53925

Airport Operations

Airport use: Private use. Permission required prior to landing
Activation date: 11/1968
Control tower: no
ARTCC: CHICAGO CENTER
FSS: GREEN BAY FLIGHT SERVICE STATION
Attendance: UNATNDD
Wind indicator: yes
Segmented circle: no

Airport Communications

WX ASOS at MSN (14 nm SW): PHONE 608-249-0615
WX AWOS-3 at RYV (16 nm E): 119.975 (920-261-0734)
WX AWOS-3 at UNU (19 nm NE): 120.825 (920-386-5682)

Nearby radio navigation aids

VOR radial/distance  VOR name  Freq  Var
MSNr058/13.8MADISON VORTAC108.6003E
DLLr117/35.2DELLS VORTAC117.0003E
BAEr282/35.2BADGER VOR/DME116.4002E

 
NDB name  Hdg/Dist  Freq  Var  ID
ROCK RIVER290/15.737101WRYV .-. -.-- ...-
JUNEAU238/18.934401WUNU ..- -. ..-
LAKE LAWN330/39.440402WLVV .-.. ...- ...-

Airport Services

Airframe service: NONE
Powerplant service: NONE

Runway Information

Runway 18/36

Dimensions: 2600 x 75 ft. / 792 x 23 m
Surface: turf
RUNWAY 18  RUNWAY 36
Traffic pattern: leftleft
Obstructions: treesnone

Airport Ownership and Management from official FAA records

Ownership: Privately-owned
Owner: MATHAIRE FIELD LLC
4349 COUNTY HWY DM
DEFOREST, WI 53532
Phone 608-846-5027
Manager: VERNON B. HERRING
4349 COUNTY HWY DM
DEFOREST, WI 53532
Phone 608-846-5027

Airport Operational Statistics

Aircraft based on the field: 25
Single engine airplanes: 18
Ultralights: 7
    

Additional Remarks

FOR CD CTC CHICAGO ARTCC AT 630-906-8921.

Instrument Procedures

There are no published instrument procedures at WI97.

Some nearby airports with instrument procedures:

87Y - Blackhawk Airfield (11 nm SW)
KMSN - Dane County Regional Airport-Truax Field (14 nm SW)
KRYV - Watertown Municipal Airport (16 nm E)
KUNU - Dodge County Airport (19 nm NE)
61C - Fort Atkinson Municipal Airport (21 nm SE)
 
Loc | Ops | Rwys | IFR | FBO | Links
Com | Nav | Svcs | Stats | Notes
Area around WI97 (Mathaire Field Airport)
 
Road maps at: MapQuest Bing Google
 
Aerial photo
No photo
 
Sectional chart

 
Airport distance calculator
Flying to Mathaire Field Airport? Find the distance to fly.

From to WI97

Sunrise and sunset
Times for 17-Aug-2019
 Local
(UTC-5)
 Zulu
(UTC)
Morning civil twilight05:3410:34
Sunrise06:0511:05
Sunset19:5600:56
Evening civil twilight20:2601:26

Current date and time
Zulu (UTC)  17-Aug-2019 11:39:42
Local (UTC-5)  17-Aug-2019 06:39:42
 
METAR
KMSN 
15nm SW 
171053Z 00000KT 10SM FEW035 SCT200 BKN250 16/15 A2991 RMK AO2 SLP125 T01610150
KRYV 
16nm E 
171115Z AUTO 00000KT 10SM CLR 14/14 A2992 RMK AO2 T01420142
KUNU 
19nm NE 
171115Z AUTO 00000KT 5SM BR CLR 14/14 A2993 RMK AO2 T01440142 TSNO
KC29 
22nm SW 
171115Z AUTO 00000KT 10SM CLR 15/M04 A2992 RMK AO1 T01511043
TAF
KMSN 
15nm SW 
170846Z 1709/1806 00000KT P6SM FEW250 TEMPO 1710/1713 6SM BR FM171500 16006KT P6SM FEW050 SCT250 FM180400 VRB04KT P6SM BKN030
NOTAMs
Click for the latest NOTAMs
NOTAMs are issued by the DoD/FAA and will open in a separate window not controlled by AirNav.

 

 
 

Would you like to see your business listed on this page?

 If your business provides an interesting product or service to pilots, flight crews, aircraft, or users of the Mathaire Field Airport, you should consider listing it here.  To start the listing process, click on the button below
 
Add a business
 

Other Pages about Mathaire Field Airport

Update a link
 
Copyright © AirNav, LLC. All rights reserved. Privacy Policy  Contact